Time;durP1;ratioP1;P1;durP2;ratioP2;P2;SDS_P1;SDS_P2;PMS_P1;PMS_P2;Temp;Humidity;BMP_temperature;BMP_pressure;BME280_temperature;BME280_humidity;BME280_pressure;Samples;Min_cycle;Max_cycle;Signal;HPM_P1;HPM_P2
2021/12/28 00:00:17;;;;;;;9.10;2.50;;;9.00;99.90;;;;;;5018176;28;20040;-65
2021/12/28 00:02:47;;;;;;;11.82;2.53;;;9.10;99.90;;;;;;5018488;28;20037;-65
2021/12/28 00:05:14;;;;;;;11.68;2.10;;;9.10;99.90;;;;;;5018590;28;20033;-65
2021/12/28 00:07:40;;;;;;;;;;;9.10;99.90;;;;;;5018952;28;20114;-65
2021/12/28 00:10:08;;;;;;;8.75;1.90;;;9.10;99.90;;;;;;5019176;28;20012;-65
2021/12/28 00:12:37;;;;;;;12.48;2.10;;;9.00;99.90;;;;;;5019137;28;20036;-65
2021/12/28 00:15:19;;;;;;;9.70;2.35;;;9.00;99.90;;;;;;5017878;28;20033;-65
2021/12/28 00:17:59;;;;;;;12.30;2.15;;;9.00;99.90;;;;;;5017836;28;20022;-65
2021/12/28 00:20:32;;;;;;;7.53;1.65;;;8.90;99.90;;;;;;5018305;28;20455;-65
2021/12/28 00:22:59;;;;;;;16.17;2.28;;;8.90;99.90;;;;;;5017504;28;20108;-65
2021/12/28 00:25:25;;;;;;;11.77;2.30;;;8.90;99.90;;;;;;5016874;28;20390;-65
2021/12/28 00:27:51;;;;;;;15.70;2.75;;;8.80;99.90;;;;;;5051928;22;20137;-69
2021/12/28 00:30:17;;;;;;;11.00;2.00;;;8.90;99.90;;;;;;5032553;28;20170;-69
2021/12/28 00:32:46;;;;;;;;;;;8.90;99.90;;;;;;5049639;28;20527;-69
2021/12/28 00:35:12;;;;;;;9.98;2.00;;;8.90;99.90;;;;;;5032665;28;19964;-69
2021/12/28 00:37:37;;;;;;;12.97;3.00;;;8.90;99.90;;;;;;5032632;28;20059;-69
2021/12/28 00:40:04;;;;;;;10.70;3.77;;;8.90;99.90;;;;;;5033576;28;20029;-69
2021/12/28 00:42:30;;;;;;;15.88;2.40;;;8.90;99.90;;;;;;5033377;28;20076;-69
2021/12/28 00:44:56;;;;;;;14.27;2.33;;;8.90;99.90;;;;;;5033653;28;20037;-69
2021/12/28 00:47:21;;;;;;;14.20;2.40;;;8.80;99.90;;;;;;5033734;28;20277;-69
2021/12/28 00:49:47;;;;;;;18.80;3.23;;;8.80;99.90;;;;;;5033520;28;20052;-69
2021/12/28 00:52:13;;;;;;;16.50;4.27;;;8.90;99.90;;;;;;5034223;28;20081;-69
2021/12/28 00:54:38;;;;;;;18.10;2.60;;;8.90;99.90;;;;;;5033267;28;20044;-69
2021/12/28 00:57:04;;;;;;;16.67;3.47;;;9.00;99.90;;;;;;5031884;28;20343;-69
2021/12/28 00:59:30;;;;;;;16.92;3.03;;;8.90;99.90;;;;;;5031903;28;20032;-69
2021/12/28 01:01:55;;;;;;;20.13;4.13;;;8.90;99.90;;;;;;5033199;28;20091;-70
2021/12/28 01:04:21;;;;;;;16.70;2.73;;;8.80;99.90;;;;;;5033041;28;20026;-69
2021/12/28 01:06:47;;;;;;;16.67;2.40;;;8.80;99.90;;;;;;5031710;28;20028;-69
2021/12/28 01:09:13;;;;;;;16.03;3.00;;;8.70;99.90;;;;;;5032371;28;20062;-70
2021/12/28 01:11:38;;;;;;;15.63;2.65;;;8.70;99.90;;;;;;5032249;28;20103;-69
2021/12/28 01:14:04;;;;;;;12.48;2.85;;;8.70;99.90;;;;;;5033011;28;20025;-69
2021/12/28 01:16:30;;;;;;;18.43;3.67;;;8.60;99.90;;;;;;5033076;28;20351;-69
2021/12/28 01:18:55;;;;;;;13.65;3.17;;;8.60;99.90;;;;;;5032945;28;20029;-69
2021/12/28 01:21:21;;;;;;;10.73;3.30;;;8.60;99.90;;;;;;5032955;28;20124;-67
2021/12/28 01:23:47;;;;;;;25.48;3.35;;;8.60;99.90;;;;;;5032805;28;20037;-67
2021/12/28 01:26:13;;;;;;;20.55;2.42;;;8.60;99.90;;;;;;5031305;28;20029;-67
2021/12/28 01:28:39;;;;;;;15.67;2.47;;;8.60;99.90;;;;;;5033296;28;20084;-67
2021/12/28 01:31:04;;;;;;;16.47;2.50;;;8.50;99.90;;;;;;5032836;28;20022;-67
2021/12/28 01:33:31;;;;;;;15.18;2.90;;;8.50;99.90;;;;;;5033257;28;20504;-67
2021/12/28 01:35:58;;;;;;;12.80;2.55;;;8.50;99.90;;;;;;5032821;28;20040;-67
2021/12/28 01:38:24;;;;;;;14.48;2.72;;;8.60;99.90;;;;;;5032610;28;20017;-66
2021/12/28 01:40:49;;;;;;;15.60;2.70;;;8.50;99.90;;;;;;5032686;28;20037;-67
2021/12/28 01:43:19;;;;;;;17.17;3.23;;;8.40;99.90;;;;;;5032832;28;20087;-67
2021/12/28 01:45:48;;;;;;;17.88;3.13;;;8.40;99.90;;;;;;5032676;28;20021;-68
2021/12/28 01:48:30;;;;;;;10.55;2.85;;;8.40;99.90;;;;;;5032900;28;20018;-67
2021/12/28 01:50:59;;;;;;;13.50;2.15;;;8.40;99.90;;;;;;5032545;28;20482;-67
2021/12/28 01:53:27;;;;;;;15.82;3.22;;;8.30;99.90;;;;;;5031605;28;20037;-68
2021/12/28 01:55:56;;;;;;;14.60;2.88;;;8.30;99.90;;;;;;5032977;28;20385;-67
2021/12/28 01:58:22;;;;;;;15.98;2.50;;;8.30;99.90;;;;;;5032788;28;20395;-67
2021/12/28 02:00:49;;;;;;;14.57;2.88;;;8.20;99.90;;;;;;5031456;28;20040;-68
2021/12/28 02:03:18;;;;;;;18.45;3.05;;;8.30;99.90;;;;;;5032805;28;20494;-67
2021/12/28 02:05:44;;;;;;;10.85;2.63;;;8.30;99.90;;;;;;5031605;28;20381;-66
2021/12/28 02:08:12;;;;;;;16.40;4.00;;;8.30;99.90;;;;;;5032442;28;20049;-66
2021/12/28 02:10:39;;;;;;;13.02;2.53;;;8.20;99.90;;;;;;5031107;28;20030;-67
2021/12/28 02:13:06;;;;;;;11.65;2.45;;;8.30;99.90;;;;;;5032432;28;20143;-68
2021/12/28 02:15:33;;;;;;;11.18;2.50;;;8.30;99.90;;;;;;5032630;28;20545;-67
2021/12/28 02:17:59;;;;;;;12.43;2.53;;;8.30;99.90;;;;;;5032351;28;20030;-67
2021/12/28 02:20:24;;;;;;;11.50;2.30;;;8.30;99.90;;;;;;5034142;28;20024;-66
2021/12/28 02:22:50;;;;;;;13.55;2.25;;;8.20;99.90;;;;;;5036468;28;20037;-67
2021/12/28 02:25:18;;;;;;;12.43;2.57;;;8.30;99.90;;;;;;5034989;28;20144;-66
2021/12/28 02:27:44;;;;;;;11.05;2.28;;;8.30;99.90;;;;;;5036467;28;20051;-67
2021/12/28 02:30:13;;;;;;;14.95;2.60;;;8.20;99.90;;;;;;5035312;28;20021;-67
2021/12/28 02:32:39;;;;;;;13.52;2.35;;;8.20;99.90;;;;;;5034897;28;20088;-67
2021/12/28 02:35:11;;;;;;;10.63;2.53;;;8.10;99.90;;;;;;5036129;28;20144;-67
2021/12/28 02:37:37;;;;;;;10.68;2.13;;;8.20;99.90;;;;;;5036217;28;20529;-67
2021/12/28 02:40:05;;;;;;;10.93;2.13;;;8.20;99.90;;;;;;5035945;28;20029;-67
2021/12/28 02:42:32;;;;;;;13.10;2.55;;;8.30;99.90;;;;;;5036519;28;20113;-67
2021/12/28 02:45:10;;;;;;;9.50;2.63;;;8.30;99.90;;;;;;5036312;28;20152;-67
2021/12/28 02:47:37;;;;;;;14.10;2.03;;;8.40;99.90;;;;;;5036839;28;20026;-67
2021/12/28 02:50:17;;;;;;;13.15;2.63;;;8.30;99.90;;;;;;5036218;28;20067;-67
2021/12/28 02:52:43;;;;;;;13.30;1.85;;;8.30;99.90;;;;;;5035797;28;20022;-67
2021/12/28 02:55:12;;;;;;;9.02;2.17;;;8.30;99.90;;;;;;5036018;28;20028;-68
2021/12/28 02:57:45;;;;;;;15.75;2.00;;;8.40;99.90;;;;;;5034558;28;20037;-67
2021/12/28 03:00:11;;;;;;;9.45;2.70;;;8.50;99.90;;;;;;5035926;28;20036;-68
2021/12/28 03:02:36;;;;;;;12.15;2.00;;;8.50;99.90;;;;;;5034572;28;20025;-67
2021/12/28 03:05:02;;;;;;;16.40;2.80;;;8.40;99.90;;;;;;5035858;28;20030;-67
2021/12/28 03:07:31;;;;;;;13.05;1.95;;;8.40;99.90;;;;;;5035954;28;20386;-67
2021/12/28 03:09:57;;;;;;;13.40;2.17;;;8.40;99.90;;;;;;5035733;28;20025;-66
2021/12/28 03:12:23;;;;;;;7.13;1.75;;;8.40;99.90;;;;;;5034084;28;20017;-67
2021/12/28 03:14:49;;;;;;;12.10;2.07;;;8.40;99.90;;;;;;5035282;28;20033;-67
2021/12/28 03:17:15;;;;;;;18.60;3.90;;;8.40;99.90;;;;;;5033989;28;20026;-66
2021/12/28 03:19:40;;;;;;;11.88;2.42;;;8.40;99.90;;;;;;5035347;28;20053;-67
2021/12/28 03:22:06;;;;;;;11.30;1.77;;;8.40;99.90;;;;;;5035628;28;20068;-67
2021/12/28 03:24:31;;;;;;;9.03;2.23;;;8.40;99.90;;;;;;5035445;28;20076;-67
2021/12/28 03:26:58;;;;;;;7.77;2.20;;;8.40;99.90;;;;;;5033735;28;20037;-66
2021/12/28 03:29:23;;;;;;;11.68;2.60;;;8.40;99.90;;;;;;5035577;28;20425;-67
2021/12/28 03:31:49;;;;;;;10.13;2.17;;;8.50;99.90;;;;;;5034400;28;20025;-66
2021/12/28 03:34:15;;;;;;;12.40;2.10;;;8.50;99.90;;;;;;5033623;28;20513;-67
2021/12/28 03:36:41;;;;;;;18.02;2.55;;;8.60;99.90;;;;;;5035059;28;20263;-67
2021/12/28 03:39:07;;;;;;;8.07;2.03;;;8.50;99.90;;;;;;5034802;28;20025;-67
2021/12/28 03:41:34;;;;;;;11.63;2.03;;;8.40;99.90;;;;;;5034850;28;20026;-66
2021/12/28 03:44:01;;;;;;;11.57;2.65;;;8.40;99.90;;;;;;5034790;28;20028;-66
2021/12/28 03:46:29;;;;;;;13.57;3.25;;;8.30;99.90;;;;;;5034728;28;20128;-67
2021/12/28 03:48:55;;;;;;;10.32;2.42;;;8.40;99.90;;;;;;5034478;28;20076;-67
2021/12/28 03:51:21;;;;;;;8.80;2.22;;;8.30;99.90;;;;;;5034475;28;20025;-66
2021/12/28 03:53:48;;;;;;;9.82;2.10;;;8.40;99.90;;;;;;5033235;28;20175;-66
2021/12/28 03:56:14;;;;;;;;;;;8.30;99.90;;;;;;5033619;28;20026;-66
2021/12/28 03:58:42;;;;;;;11.48;2.50;;;8.30;99.90;;;;;;5034479;28;19905;-66
2021/12/28 04:01:09;;;;;;;11.65;2.65;;;8.30;99.90;;;;;;5034468;28;20442;-67
2021/12/28 04:03:35;;;;;;;8.52;2.22;;;8.20;99.90;;;;;;5032906;28;20120;-67
2021/12/28 04:06:07;;;;;;;9.18;1.80;;;8.20;99.90;;;;;;5034369;28;20033;-67
2021/12/28 04:08:34;;;;;;;11.98;1.98;;;8.20;99.90;;;;;;5034761;28;20399;-67
2021/12/28 04:11:15;;;;;;;12.85;1.85;;;8.20;99.90;;;;;;5034447;28;20021;-67
2021/12/28 04:13:43;;;;;;;12.05;2.60;;;8.30;99.90;;;;;;5034349;28;20032;-68
2021/12/28 04:16:09;;;;;;;12.00;2.42;;;8.30;99.90;;;;;;5033365;28;20017;-67
2021/12/28 04:18:35;;;;;;;10.43;2.80;;;8.30;99.90;;;;;;5034029;28;20362;-67
2021/12/28 04:21:01;;;;;;;11.57;1.85;;;8.40;99.90;;;;;;5034082;28;20033;-68
2021/12/28 04:23:26;;;;;;;10.57;2.33;;;8.40;99.90;;;;;;5034412;28;20022;-67
2021/12/28 04:25:52;;;;;;;9.63;2.15;;;8.40;99.90;;;;;;5032515;28;20108;-67
2021/12/28 04:28:18;;;;;;;14.25;2.55;;;8.40;99.90;;;;;;5033741;28;20076;-66
2021/12/28 04:30:43;;;;;;;18.00;1.83;;;8.30;99.90;;;;;;5033687;28;20385;-67
2021/12/28 04:33:09;;;;;;;9.30;1.60;;;8.30;99.90;;;;;;5032534;28;20024;-67
2021/12/28 04:35:35;;;;;;;10.47;1.20;;;8.40;99.90;;;;;;5032493;28;20431;-67
2021/12/28 04:38:01;;;;;;;7.60;1.20;;;8.40;99.90;;;;;;5032207;28;20256;-67
2021/12/28 04:40:27;;;;;;;4.53;1.23;;;8.40;99.90;;;;;;5033621;28;20018;-67
2021/12/28 04:42:53;;;;;;;11.13;1.63;;;8.40;99.90;;;;;;5033657;28;20504;-67
2021/12/28 04:45:18;;;;;;;10.40;1.48;;;8.50;99.90;;;;;;5033876;28;20108;-66
2021/12/28 04:47:45;;;;;;;5.33;1.33;;;8.60;99.90;;;;;;5033715;28;20057;-67
2021/12/28 04:50:12;;;;;;;13.50;1.77;;;8.60;99.90;;;;;;5033827;28;20025;-67
2021/12/28 04:52:39;;;;;;;8.13;1.40;;;8.60;99.90;;;;;;5033706;28;20544;-68
2021/12/28 04:55:10;;;;;;;8.48;1.23;;;8.60;99.90;;;;;;5033678;28;20022;-67
2021/12/28 04:57:36;;;;;;;10.90;1.30;;;8.60;99.90;;;;;;5032236;28;20022;-67
2021/12/28 05:00:05;;;;;;;5.35;1.00;;;8.60;99.90;;;;;;5032132;28;20139;-67
2021/12/28 05:02:31;;;;;;;9.93;1.65;;;8.70;99.90;;;;;;5033739;28;20021;-66
2021/12/28 05:04:56;;;;;;;4.90;0.93;;;8.80;99.90;;;;;;5033818;28;20086;-67
2021/12/28 05:07:22;;;;;;;6.13;0.60;;;8.80;99.90;;;;;;5033591;28;20040;-68
2021/12/28 05:09:49;;;;;;;4.13;0.80;;;8.80;99.90;;;;;;5032596;28;20111;-66
2021/12/28 05:12:15;;;;;;;3.75;1.35;;;8.90;99.90;;;;;;5032157;28;20083;-67
2021/12/28 05:14:42;;;;;;;5.30;0.90;;;8.90;99.90;;;;;;5033704;28;20057;-67
2021/12/28 05:17:08;;;;;;;6.68;0.82;;;8.90;99.90;;;;;;5033185;28;20029;-67
2021/12/28 05:19:34;;;;;;;2.78;0.60;;;8.80;99.90;;;;;;5032034;28;20390;-67
2021/12/28 05:22:00;;;;;;;2.22;0.57;;;8.80;99.90;;;;;;5033036;28;20033;-67
2021/12/28 05:24:26;;;;;;;4.97;1.20;;;8.80;99.90;;;;;;5033001;28;20033;-67
2021/12/28 05:26:52;;;;;;;3.03;0.80;;;8.80;99.90;;;;;;5032689;28;20429;-67
2021/12/28 05:29:18;;;;;;;;;;;8.80;99.90;;;;;;5033452;28;20025;-66
2021/12/28 05:31:44;;;;;;;5.72;0.70;;;8.80;99.90;;;;;;5032131;28;19905;-66
2021/12/28 05:34:10;;;;;;;5.80;0.70;;;8.80;99.90;;;;;;5032954;28;20028;-66
2021/12/28 05:36:36;;;;;;;2.43;0.67;;;8.80;99.90;;;;;;5033018;28;20030;-66
2021/12/28 05:39:02;;;;;;;4.10;0.47;;;8.70;99.90;;;;;;5031908;28;20567;-67
2021/12/28 05:41:28;;;;;;;2.45;1.23;;;8.70;99.90;;;;;;5033045;28;20045;-67
2021/12/28 05:43:54;;;;;;;4.07;0.60;;;8.70;99.90;;;;;;5032917;28;20409;-67
2021/12/28 05:46:19;;;;;;;3.33;0.70;;;8.70;99.90;;;;;;5031485;28;20033;-67
2021/12/28 05:48:47;;;;;;;3.70;0.73;;;8.70;99.90;;;;;;5033197;28;20025;-67
2021/12/28 05:51:13;;;;;;;2.08;0.50;;;8.70;99.90;;;;;;5031762;28;20112;-67
2021/12/28 05:53:39;;;;;;;4.93;0.90;;;8.70;99.90;;;;;;5034075;28;20037;-67
2021/12/28 05:56:04;;;;;;;3.03;0.43;;;8.70;99.90;;;;;;5036109;28;20030;-67
2021/12/28 05:58:30;;;;;;;3.53;0.60;;;8.70;99.90;;;;;;5037733;28;20023;-67
2021/12/28 06:00:56;;;;;;;1.90;0.57;;;8.70;99.90;;;;;;5037824;28;20033;-67
2021/12/28 06:03:21;;;;;;;3.63;0.73;;;8.70;99.90;;;;;;5036084;28;20279;-67
2021/12/28 06:05:47;;;;;;;4.70;0.73;;;8.70;99.90;;;;;;5037551;28;20095;-67
2021/12/28 06:08:13;;;;;;;2.53;0.67;;;8.70;99.90;;;;;;5036857;28;20045;-67
2021/12/28 06:10:38;;;;;;;2.63;0.67;;;8.70;99.90;;;;;;5036768;28;20026;-67
2021/12/28 06:13:04;;;;;;;5.43;0.80;;;8.70;99.90;;;;;;5038096;28;20114;-67
2021/12/28 06:15:30;;;;;;;3.93;0.77;;;8.80;99.90;;;;;;5037885;28;20025;-67
2021/12/28 06:17:55;;;;;;;3.30;0.70;;;8.80;99.90;;;;;;5036652;28;20105;-67
2021/12/28 06:20:21;;;;;;;2.43;0.83;;;8.80;99.90;;;;;;5036689;28;20029;-67
2021/12/28 06:22:47;;;;;;;4.17;2.47;;;8.80;99.90;;;;;;5037185;28;20025;-67
2021/12/28 06:25:12;;;;;;;1.50;0.70;;;8.90;99.90;;;;;;5036781;28;20279;-68
2021/12/28 06:27:38;;;;;;;3.43;0.73;;;8.90;99.90;;;;;;5037428;28;20047;-67
2021/12/28 06:30:04;;;;;;;1.87;0.40;;;8.90;99.90;;;;;;5037162;28;20256;-68
2021/12/28 06:32:30;;;;;;;2.28;0.40;;;9.00;99.90;;;;;;5035273;28;20117;-66
2021/12/28 06:34:56;;;;;;;2.03;0.45;;;9.00;99.90;;;;;;5037859;28;20061;-67
2021/12/28 06:37:21;;;;;;;1.33;0.50;;;9.00;99.90;;;;;;5036424;28;20036;-67
2021/12/28 06:39:47;;;;;;;12.50;1.07;;;9.00;99.90;;;;;;5036640;28;20059;-67
2021/12/28 06:42:12;;;;;;;2.23;0.70;;;9.00;99.90;;;;;;5035787;28;20363;-67
2021/12/28 06:44:42;;;;;;;2.40;0.70;;;9.00;99.90;;;;;;5034467;28;20040;-68
2021/12/28 06:47:07;;;;;;;2.10;0.50;;;9.00;99.90;;;;;;5034367;28;20117;-67
2021/12/28 06:49:33;;;;;;;3.70;0.67;;;9.10;99.90;;;;;;5036272;28;20442;-67
2021/12/28 06:51:59;;;;;;;4.50;0.53;;;9.20;99.90;;;;;;5035815;28;20157;-67
2021/12/28 06:54:24;;;;;;;1.00;0.30;;;9.20;99.90;;;;;;5035843;28;20104;-67
2021/12/28 06:56:50;;;;;;;1.00;0.40;;;9.30;99.90;;;;;;5034403;28;20040;-67
2021/12/28 06:59:15;;;;;;;0.30;0.20;;;9.40;99.90;;;;;;5035754;28;20097;-67
2021/12/28 07:01:41;;;;;;;3.30;0.30;;;9.50;99.90;;;;;;5035612;28;20060;-67
2021/12/28 07:04:07;;;;;;;1.00;0.30;;;9.60;99.90;;;;;;5035823;28;20022;-67
2021/12/28 07:06:32;;;;;;;2.33;0.30;;;9.60;99.90;;;;;;5032951;28;20029;-66
2021/12/28 07:08:58;;;;;;;0.63;0.20;;;9.60;99.90;;;;;;5034066;28;20024;-66
2021/12/28 07:11:24;;;;;;;1.80;0.90;;;9.70;99.90;;;;;;5034205;28;20022;-67
2021/12/28 07:13:49;;;;;;;0.95;0.38;;;9.80;99.90;;;;;;5035411;28;20028;-68
2021/12/28 07:16:15;;;;;;;1.37;0.33;;;9.80;99.90;;;;;;5033227;28;20084;-67
2021/12/28 07:18:41;;;;;;;0.47;0.30;;;9.80;99.90;;;;;;5036308;28;20075;-68
2021/12/28 07:21:06;;;;;;;0.10;0.10;;;9.70;99.90;;;;;;5034399;28;20505;-68
2021/12/28 07:23:32;;;;;;;0.50;0.27;;;9.80;99.90;;;;;;5035734;28;20026;-69
2021/12/28 07:25:58;;;;;;;0.68;0.20;;;9.80;99.90;;;;;;5034014;28;20029;-67
2021/12/28 07:28:24;;;;;;;1.17;0.10;;;9.80;99.90;;;;;;5033794;28;20033;-67
2021/12/28 07:30:50;;;;;;;;;;;9.80;99.90;;;;;;5034254;28;20029;-67
2021/12/28 07:33:16;;;;;;;0.68;0.22;;;9.90;99.90;;;;;;5036482;28;20389;-67
2021/12/28 07:35:41;;;;;;;0.68;0.40;;;9.90;99.90;;;;;;5035205;28;20028;-68
2021/12/28 07:38:07;;;;;;;0.83;0.30;;;9.90;99.90;;;;;;5035864;28;20030;-68
2021/12/28 07:40:34;;;;;;;0.30;0.20;;;9.90;99.90;;;;;;5036348;28;20032;-68
2021/12/28 07:42:59;;;;;;;0.50;0.20;;;9.90;99.90;;;;;;5039647;28;20272;-67
2021/12/28 07:45:25;;;;;;;3.53;0.20;;;9.80;99.90;;;;;;5038103;28;20048;-67
2021/12/28 07:47:51;;;;;;;1.00;0.30;;;9.80;99.90;;;;;;5034429;28;20060;-68
2021/12/28 07:50:19;;;;;;;1.90;0.33;;;9.80;99.90;;;;;;5033101;28;20348;-68
2021/12/28 07:52:45;;;;;;;0.70;0.30;;;9.90;99.90;;;;;;5034565;28;20025;-67
2021/12/28 07:55:12;;;;;;;0.85;0.30;;;9.80;99.90;;;;;;5034809;28;20100;-68
2021/12/28 07:57:38;;;;;;;0.80;0.30;;;9.80;99.90;;;;;;5034738;28;20117;-68
2021/12/28 08:00:06;;;;;;;1.25;0.50;;;9.70;99.90;;;;;;5034718;28;20049;-67
2021/12/28 08:02:32;;;;;;;0.50;0.30;;;9.70;99.90;;;;;;5034127;28;20037;-67
2021/12/28 08:04:58;;;;;;;1.70;1.00;;;9.60;99.90;;;;;;5034488;28;20503;-68
2021/12/28 08:07:23;;;;;;;1.60;0.80;;;9.60;99.90;;;;;;5037953;28;20104;-68
2021/12/28 08:09:49;;;;;;;2.40;0.40;;;9.60;99.90;;;;;;5036660;28;20061;-68
2021/12/28 08:12:15;;;;;;;0.20;0.20;;;9.60;99.90;;;;;;5035222;28;20029;-67
2021/12/28 08:14:47;;;;;;;1.53;0.50;;;9.60;99.90;;;;;;5034548;28;20252;-67
2021/12/28 08:17:13;;;;;;;0.57;0.20;;;9.70;99.90;;;;;;5035871;28;20029;-67
2021/12/28 08:19:39;;;;;;;0.90;0.40;;;9.80;99.90;;;;;;5034161;28;20049;-67
2021/12/28 08:22:05;;;;;;;0.83;0.30;;;9.80;99.90;;;;;;5034355;28;20021;-67
2021/12/28 08:24:31;;;;;;;1.55;0.60;;;9.90;99.90;;;;;;5034759;28;20017;-68
2021/12/28 08:26:56;;;;;;;0.30;0.25;;;10.00;99.90;;;;;;5033712;28;20166;-67
2021/12/28 08:29:22;;;;;;;1.07;0.70;;;10.00;99.90;;;;;;5034259;28;20036;-68
2021/12/28 08:31:48;;;;;;;0.40;0.30;;;10.10;99.90;;;;;;5042115;28;20375;-67
2021/12/28 08:34:13;;;;;;;0.67;0.40;;;10.10;99.90;;;;;;5045757;28;20398;-67
2021/12/28 08:36:39;;;;;;;2.00;0.40;;;10.20;99.90;;;;;;5037907;28;20263;-67
2021/12/28 08:39:05;;;;;;;1.15;0.40;;;10.30;99.90;;;;;;5032035;28;20030;-67
2021/12/28 08:41:31;;;;;;;0.85;0.40;;;10.40;99.90;;;;;;5033447;28;20492;-65
2021/12/28 08:43:57;;;;;;;1.55;0.70;;;10.40;99.90;;;;;;5033300;28;20029;-67
2021/12/28 08:46:22;;;;;;;2.07;0.40;;;10.40;99.90;;;;;;5033403;28;20378;-68
2021/12/28 08:48:48;;;;;;;0.30;0.30;;;10.40;99.90;;;;;;5033521;28;20037;-68
2021/12/28 08:51:15;;;;;;;1.40;0.30;;;10.30;99.90;;;;;;5032235;28;20026;-68
2021/12/28 08:53:41;;;;;;;2.13;1.10;;;10.20;99.90;;;;;;5033148;28;20040;-68
2021/12/28 08:56:06;;;;;;;2.10;0.40;;;10.20;99.90;;;;;;5033302;28;20425;-68
2021/12/28 08:58:32;;;;;;;3.03;0.90;;;10.30;99.90;;;;;;5033321;28;20494;-67
2021/12/28 09:00:58;;;;;;;0.60;0.40;;;10.20;99.90;;;;;;5031855;28;20033;-67
2021/12/28 09:03:24;;;;;;;0.68;0.40;;;10.20;99.90;;;;;;5033277;28;20036;-67
2021/12/28 09:05:50;;;;;;;0.30;0.25;;;10.20;99.90;;;;;;5032979;28;20427;-67
2021/12/28 09:08:17;;;;;;;0.47;0.22;;;10.20;99.90;;;;;;5032949;28;20037;-67
2021/12/28 09:10:43;;;;;;;0.98;0.30;;;10.30;99.90;;;;;;5032768;28;20048;-67
2021/12/28 09:13:11;;;;;;;1.48;0.60;;;10.30;99.90;;;;;;5032031;28;20090;-67
2021/12/28 09:15:37;;;;;;;0.70;0.30;;;10.20;99.90;;;;;;5032998;28;20501;-67
2021/12/28 09:18:03;;;;;;;0.50;0.32;;;10.20;99.90;;;;;;5032726;28;20440;-67
2021/12/28 09:20:29;;;;;;;1.55;0.50;;;10.20;99.90;;;;;;5034472;28;20038;-67
2021/12/28 09:22:56;;;;;;;0.33;0.20;;;10.30;99.90;;;;;;5031725;28;20544;-67
2021/12/28 09:25:23;;;;;;;1.63;0.30;;;10.40;99.90;;;;;;5033171;28;20067;-67
2021/12/28 09:27:49;;;;;;;0.68;0.38;;;10.50;99.90;;;;;;5031328;28;20125;-67
2021/12/28 09:30:15;;;;;;;;;;;10.50;99.90;;;;;;5032582;28;20021;-67
2021/12/28 09:32:41;;;;;;;0.73;0.40;;;10.70;99.90;;;;;;5031768;28;19951;-66
2021/12/28 09:35:09;;;;;;;0.55;0.35;;;10.70;99.90;;;;;;5031383;28;20030;-66
2021/12/28 09:37:35;;;;;;;2.97;0.88;;;10.70;99.90;;;;;;5032547;28;20029;-68
2021/12/28 09:40:01;;;;;;;;;;;10.70;99.90;;;;;;5033236;28;20091;-65
2021/12/28 09:42:27;;;;;;;1.08;0.30;;;10.70;99.90;;;;;;5033119;28;20277;-67
2021/12/28 09:44:53;;;;;;;1.40;0.30;;;10.70;99.90;;;;;;5033260;28;20065;-66
2021/12/28 09:47:20;;;;;;;0.90;0.40;;;10.80;99.90;;;;;;5038320;28;20022;-67
2021/12/28 09:49:47;;;;;;;1.45;0.45;;;10.80;99.90;;;;;;5032043;28;20030;-68
2021/12/28 09:52:13;;;;;;;0.30;0.30;;;10.80;99.90;;;;;;5032790;28;20084;-68
2021/12/28 09:54:40;;;;;;;0.50;0.30;;;10.90;99.90;;;;;;5032468;28;20100;-68
2021/12/28 09:57:05;;;;;;;;;;;10.90;99.90;;;;;;5031752;28;20109;-68
2021/12/28 09:59:32;;;;;;;3.20;0.30;;;11.00;99.90;;;;;;5033149;28;20045;-68
2021/12/28 10:01:59;;;;;;;0.88;0.50;;;10.90;99.90;;;;;;5032489;28;20075;-68
2021/12/28 10:04:28;;;;;;;2.15;0.40;;;11.00;99.90;;;;;;5032737;28;20091;-68
2021/12/28 10:07:17;;;;;;;1.55;0.30;;;11.00;99.90;;;;;;5032455;28;20079;-68
2021/12/28 10:09:44;;;;;;;0.82;0.28;;;11.00;99.90;;;;;;5032772;28;20076;-68
2021/12/28 10:12:10;;;;;;;1.13;0.50;;;11.00;99.90;;;;;;5032642;28;20025;-68
2021/12/28 10:14:36;;;;;;;1.10;0.52;;;10.90;99.90;;;;;;5032653;28;20032;-67
2021/12/28 10:17:07;;;;;;;2.05;0.60;;;11.00;99.90;;;;;;5032471;28;20029;-66
2021/12/28 10:19:32;;;;;;;1.27;0.50;;;10.90;99.90;;;;;;5032587;28;20083;-66
2021/12/28 10:22:18;;;;;;;0.67;0.33;;;11.00;99.90;;;;;;5033080;28;20029;-65
2021/12/28 10:24:44;;;;;;;0.80;0.30;;;10.90;99.90;;;;;;5032670;28;20026;-66
2021/12/28 10:27:11;;;;;;;0.75;0.40;;;10.90;99.90;;;;;;5032550;28;20131;-66
2021/12/28 10:29:37;;;;;;;2.25;0.50;;;10.90;99.90;;;;;;5033415;28;20397;-66
2021/12/28 10:32:15;;;;;;;0.67;0.30;;;10.80;99.90;;;;;;5032616;28;20096;-66
2021/12/28 10:34:54;;;;;;;1.10;0.40;;;10.80;99.90;;;;;;5032621;28;20272;-65
2021/12/28 10:37:27;;;;;;;0.80;0.50;;;10.70;99.90;;;;;;5032298;28;20382;-65
2021/12/28 10:39:56;;;;;;;3.53;0.70;;;10.70;99.90;;;;;;5032570;28;20025;-65
2021/12/28 10:42:42;;;;;;;0.80;0.40;;;10.70;99.90;;;;;;5035218;28;20041;-68
2021/12/28 10:45:11;;;;;;;1.13;0.40;;;10.60;99.90;;;;;;5036148;28;20033;-67
2021/12/28 10:47:37;;;;;;;2.38;0.35;;;10.70;99.90;;;;;;5034900;28;20359;-68
2021/12/28 10:50:21;;;;;;;0.80;0.50;;;10.70;99.90;;;;;;5036735;28;20022;-69
2021/12/28 10:52:51;;;;;;;0.82;0.47;;;10.60;99.90;;;;;;5034740;28;20025;-67
2021/12/28 10:55:23;;;;;;;3.70;0.75;;;10.60;99.90;;;;;;5034724;28;20041;-68
2021/12/28 10:57:49;;;;;;;1.67;0.70;;;10.70;99.90;;;;;;5035806;28;20104;-68
2021/12/28 11:00:22;;;;;;;;;;;10.70;99.90;;;;;;5034958;28;20021;-69
2021/12/28 11:02:48;;;;;;;1.60;1.00;;;10.70;99.90;;;;;;5035755;28;19920;-68
2021/12/28 11:05:33;;;;;;;2.40;0.90;;;10.80;99.90;;;;;;5035601;28;20029;-69
2021/12/28 11:07:59;;;;;;;2.55;0.88;;;10.80;99.90;;;;;;5033964;28;20040;-68
2021/12/28 11:10:28;;;;;;;2.20;0.85;;;10.80;99.90;;;;;;5035801;28;20517;-68
2021/12/28 11:12:55;;;;;;;2.58;1.42;;;10.80;99.90;;;;;;5035686;28;20032;-68
2021/12/28 11:15:24;;;;;;;3.53;1.20;;;10.80;99.90;;;;;;5035398;28;20454;-67
2021/12/28 11:17:52;;;;;;;1.80;1.00;;;10.90;99.90;;;;;;5036519;28;20091;-68
2021/12/28 11:20:31;;;;;;;2.67;1.00;;;10.90;99.90;;;;;;5033887;28;20029;-68
2021/12/28 11:23:11;;;;;;;2.88;1.50;;;10.90;99.90;;;;;;5035211;28;20032;-68
2021/12/28 11:25:38;;;;;;;2.85;1.05;;;11.00;99.90;;;;;;5035067;28;20017;-68
2021/12/28 11:28:15;;;;;;;2.20;0.95;;;11.00;99.90;;;;;;5033289;28;20068;-70
2021/12/28 11:30:59;;;;;;;2.78;0.90;;;11.00;99.90;;;;;;5035265;28;20025;-68
2021/12/28 11:33:24;;;;;;;2.70;1.10;;;11.10;99.90;;;;;;5033494;28;20021;-69
2021/12/28 11:35:50;;;;;;;3.20;1.47;;;11.20;99.90;;;;;;5033489;28;20037;-68
2021/12/28 11:38:15;;;;;;;1.63;0.90;;;11.30;99.90;;;;;;5033337;28;20033;-67
2021/12/28 11:40:41;;;;;;;1.43;0.73;;;11.40;99.90;;;;;;5033497;28;20489;-69
2021/12/28 11:43:07;;;;;;;1.00;0.70;;;11.60;99.90;;;;;;5035095;28;20022;-69
2021/12/28 11:45:32;;;;;;;1.80;0.70;;;11.60;99.90;;;;;;5034709;28;20029;-70
2021/12/28 11:47:59;;;;;;;2.37;0.60;;;11.60;99.90;;;;;;5033384;28;20368;-68
2021/12/28 11:50:25;;;;;;;0.90;0.70;;;11.80;99.90;;;;;;5034462;28;20048;-68
2021/12/28 11:52:52;;;;;;;1.65;0.57;;;11.90;99.90;;;;;;5034076;28;20076;-68
2021/12/28 11:55:19;;;;;;;1.65;0.80;;;11.90;99.90;;;;;;5034440;28;20040;-67
2021/12/28 11:57:54;;;;;;;2.25;1.02;;;12.00;99.90;;;;;;5034435;28;20116;-68
2021/12/28 12:00:22;;;;;;;0.88;0.50;;;12.00;99.90;;;;;;5034253;28;20029;-67
2021/12/28 12:02:52;;;;;;;0.57;0.40;;;11.90;99.90;;;;;;5034374;28;20052;-68
2021/12/28 12:05:21;;;;;;;2.05;0.47;;;11.90;99.90;;;;;;5032725;28;20026;-68
2021/12/28 12:08:06;;;;;;;10.52;4.32;;;11.90;99.90;;;;;;5034145;28;20425;-69
2021/12/28 12:10:35;;;;;;;2.03;0.90;;;11.80;99.90;;;;;;5034394;28;20025;-69
2021/12/28 12:13:12;;;;;;;3.28;0.70;;;11.80;99.90;;;;;;5034177;28;20022;-69
2021/12/28 12:15:41;;;;;;;1.65;0.80;;;11.70;99.90;;;;;;5034384;28;20029;-69
2021/12/28 12:18:11;;;;;;;1.70;0.85;;;11.60;99.90;;;;;;5034364;28;20053;-68
2021/12/28 12:20:37;;;;;;;2.95;1.40;;;11.50;99.90;;;;;;5033292;28;20124;-69
2021/12/28 12:23:08;;;;;;;4.05;1.83;;;11.50;99.90;;;;;;5034194;28;20021;-69
2021/12/28 12:25:45;;;;;;;4.38;0.90;;;11.50;99.90;;;;;;5034027;28;20030;-71
2021/12/28 12:28:11;;;;;;;3.25;1.83;;;11.40;99.90;;;;;;5034101;28;20025;-69
2021/12/28 12:30:50;;;;;;;1.40;0.88;;;11.40;99.90;;;;;;5057796;23;20390;-67
2021/12/28 12:33:17;;;;;;;0.70;0.57;;;11.30;99.90;;;;;;5034348;28;20025;-67
2021/12/28 12:35:55;;;;;;;1.85;1.35;;;11.30;99.90;;;;;;5049635;28;20026;-66
2021/12/28 12:38:24;;;;;;;1.38;0.77;;;11.20;99.90;;;;;;5033840;28;20026;-66
2021/12/28 12:40:51;;;;;;;0.60;0.40;;;11.20;99.90;;;;;;5033921;28;20413;-66
2021/12/28 12:43:17;;;;;;;1.15;0.55;;;11.20;99.90;;;;;;5033856;28;20029;-65
2021/12/28 12:45:52;;;;;;;2.00;0.77;;;11.10;99.90;;;;;;5032467;28;20092;-65
2021/12/28 12:48:53;;;;;;;2.42;1.17;;;11.10;99.90;;;;;;5033587;28;20120;-65
2021/12/28 12:51:26;;;;;;;1.10;0.80;;;11.10;99.90;;;;;;5034061;28;20093;-65
2021/12/28 12:53:54;;;;;;;1.33;0.73;;;11.10;99.90;;;;;;5032701;28;20037;-65